createdAt,value
2018-04-23T00:01:56.900Z,68.30
2018-04-23T00:04:25.159Z,68.40
2018-04-23T00:06:52.766Z,68.20
2018-04-23T00:09:20.236Z,68.30
2018-04-23T00:11:47.701Z,68.60
2018-04-23T00:14:15.203Z,68.70
2018-04-23T00:16:43.427Z,68.90
2018-04-23T00:19:10.909Z,68.90
2018-04-23T00:21:38.388Z,68.90
2018-04-23T00:24:06.666Z,69.30
2018-04-23T00:26:34.886Z,69.80
2018-04-23T00:29:02.439Z,69.60
2018-04-23T00:31:29.939Z,69.80
2018-04-23T00:33:58.175Z,69.90
2018-04-23T00:36:25.632Z,69.70
2018-04-23T00:38:53.140Z,70.20
2018-04-23T00:41:20.603Z,70.50
2018-04-23T00:43:48.880Z,71.50
2018-04-23T00:46:17.147Z,71.80
2018-04-23T00:48:44.616Z,71.70
2018-04-23T00:51:12.839Z,72.50
2018-04-23T00:53:40.435Z,72.30
2018-04-23T00:56:07.911Z,73.00
2018-04-23T00:58:36.122Z,73.80
2018-04-23T01:01:03.612Z,72.90
2018-04-23T01:03:31.167Z,73.20
2018-04-23T01:05:59.396Z,73.20
2018-04-23T01:08:26.904Z,73.10
2018-04-23T01:13:30.491Z,74.10
2018-04-23T01:15:57.969Z,74.00
2018-04-23T01:18:25.432Z,74.50
2018-04-23T01:20:52.900Z,74.90
2018-04-23T01:23:20.384Z,75.20
2018-04-23T01:25:47.961Z,75.40
2018-04-23T01:28:15.475Z,75.20
2018-04-23T01:30:43.023Z,75.60
2018-04-23T01:33:12.007Z,76.10
2018-04-23T01:35:39.476Z,76.00
2018-04-23T01:38:06.940Z,76.50
2018-04-23T01:40:34.442Z,76.70
2018-04-23T01:43:01.942Z,77.70
2018-04-23T01:45:29.430Z,77.70
2018-04-23T01:47:57.655Z,78.30
2018-04-23T01:50:25.144Z,78.30
2018-04-23T01:52:52.711Z,78.70
2018-04-23T01:55:20.939Z,78.80
2018-04-23T01:57:48.423Z,78.80
2018-04-23T02:00:15.996Z,79.10
2018-04-23T02:02:44.225Z,80.00
2018-04-23T02:05:11.688Z,79.80
2018-04-23T02:07:39.173Z,79.90
2018-04-23T02:10:06.659Z,79.90
2018-04-23T02:12:34.892Z,80.40
2018-04-23T02:15:02.375Z,80.30
2018-04-23T02:17:30.604Z,81.00
2018-04-23T02:19:58.105Z,81.00
2018-04-23T02:22:25.663Z,81.20
2018-04-23T02:24:53.131Z,81.20
2018-04-23T02:27:21.359Z,81.40
2018-04-23T02:29:48.834Z,81.40
2018-04-23T02:32:16.304Z,82.00
2018-04-23T02:34:43.808Z,82.30
2018-04-23T02:37:11.311Z,82.20
2018-04-23T02:39:38.876Z,83.20
2018-04-23T02:42:06.413Z,82.60
2018-04-23T02:44:33.880Z,82.50
2018-04-23T02:47:01.502Z,83.10
2018-04-23T02:49:28.968Z,83.70
2018-04-23T02:51:56.443Z,83.90
2018-04-23T02:54:23.921Z,84.00
2018-04-23T02:56:51.400Z,84.10
2018-04-23T02:59:19.660Z,84.30
2018-04-23T03:01:47.165Z,84.30
2018-04-23T03:04:14.631Z,84.50
2018-04-23T03:06:42.121Z,84.60
2018-04-23T03:09:09.596Z,84.90
2018-04-23T03:11:37.864Z,85.10
2018-04-23T03:14:05.328Z,85.00
2018-04-23T03:16:33.559Z,84.90
2018-04-23T03:19:01.026Z,84.80
2018-04-23T03:21:28.502Z,85.10
2018-04-23T03:23:56.063Z,85.70
2018-04-23T03:26:23.569Z,85.80
2018-04-23T03:28:51.036Z,85.90
2018-04-23T03:31:18.507Z,85.80
2018-04-23T03:33:46.022Z,86.00
2018-04-23T03:36:13.502Z,86.10
2018-04-23T03:38:41.010Z,85.90
2018-04-23T03:41:08.671Z,85.90
2018-04-23T03:43:36.912Z,86.40
2018-04-23T03:46:04.405Z,86.30
2018-04-23T03:48:31.883Z,86.20
2018-04-23T03:51:00.131Z,86.10
2018-04-23T03:53:28.371Z,86.00
2018-04-23T03:55:55.835Z,86.00
2018-04-23T03:58:23.320Z,85.90
2018-04-23T04:00:50.786Z,86.00
2018-04-23T04:03:19.015Z,86.20
2018-04-23T04:05:46.509Z,86.20
2018-04-23T04:08:14.833Z,86.10
2018-04-23T04:10:42.337Z,86.10
2018-04-23T04:13:21.535Z,86.80
2018-04-23T04:16:00.951Z,86.90
2018-04-23T04:18:46.116Z,86.90
2018-04-23T04:21:13.633Z,87.30
2018-04-23T04:23:41.176Z,87.20
2018-04-23T04:26:08.659Z,87.30
2018-04-23T04:28:36.980Z,87.10
2018-04-23T04:31:04.460Z,87.50
2018-04-23T04:33:32.036Z,87.30
2018-04-23T04:35:59.508Z,87.70
2018-04-23T04:38:27.053Z,87.40
2018-04-23T04:40:54.573Z,87.50
2018-04-23T04:43:22.047Z,87.10
2018-04-23T04:45:49.515Z,88.00
2018-04-23T04:48:16.989Z,87.30
2018-04-23T04:50:44.549Z,87.20
2018-04-23T04:53:12.116Z,86.90
2018-04-23T04:55:40.434Z,87.60
2018-04-23T04:58:07.937Z,87.50
2018-04-23T05:00:35.531Z,87.90
2018-04-23T05:03:02.995Z,87.50
2018-04-23T05:05:30.510Z,87.80
2018-04-23T05:07:58.070Z,87.90
2018-04-23T05:10:25.541Z,88.20
2018-04-23T05:12:53.088Z,88.20
2018-04-23T05:15:20.652Z,88.10
2018-04-23T05:17:48.259Z,88.60
2018-04-23T05:20:15.723Z,88.50
2018-04-23T05:22:43.189Z,88.10
2018-04-23T05:25:10.688Z,88.30
2018-04-23T05:27:38.147Z,88.40
2018-04-23T05:30:06.389Z,88.50
2018-04-23T05:32:33.852Z,88.40
2018-04-23T05:35:01.428Z,88.10
2018-04-23T05:37:28.897Z,88.10
2018-04-23T05:39:56.449Z,87.90
2018-04-23T05:42:23.915Z,87.30
2018-04-23T05:44:52.226Z,87.20
2018-04-23T05:47:19.728Z,87.10
2018-04-23T05:49:47.300Z,87.30
2018-04-23T05:52:14.855Z,87.30
2018-04-23T05:54:42.418Z,87.40
2018-04-23T05:57:10.740Z,87.70
2018-04-23T05:59:38.204Z,86.70
2018-04-23T06:02:05.711Z,87.00
2018-04-23T06:04:33.167Z,86.70
2018-04-23T06:07:01.391Z,86.80
2018-04-23T06:09:28.896Z,86.60
2018-04-23T06:11:56.469Z,86.40
2018-04-23T06:14:24.747Z,85.50
2018-04-23T06:16:52.168Z,85.40
2018-04-23T06:19:19.652Z,85.80
2018-04-23T06:21:47.895Z,85.80
2018-04-23T06:24:15.476Z,85.70
2018-04-23T06:26:42.948Z,86.00
2018-04-23T06:29:11.184Z,86.00
2018-04-23T06:31:38.651Z,85.80
2018-04-23T06:34:06.127Z,85.60
2018-04-23T06:36:34.407Z,85.70
2018-04-23T06:39:02.641Z,84.90
2018-04-23T06:41:30.273Z,84.90
2018-04-23T06:43:57.764Z,84.50
2018-04-23T06:46:25.382Z,84.60
2018-04-23T06:48:52.815Z,83.90
2018-04-23T06:51:21.047Z,83.30
2018-04-23T06:53:48.516Z,83.20
2018-04-23T06:56:15.976Z,83.30
2018-04-23T06:58:43.450Z,83.50
2018-04-23T07:01:12.440Z,83.10
2018-04-23T07:03:40.696Z,83.10
2018-04-23T07:06:08.163Z,83.10
2018-04-23T07:08:36.495Z,84.30
2018-04-23T07:11:03.969Z,84.10
2018-04-23T07:13:31.428Z,83.80
2018-04-23T07:15:58.893Z,83.40
2018-04-23T07:18:26.363Z,82.40
2018-04-23T07:20:55.343Z,82.50
2018-04-23T07:23:23.180Z,82.50
2018-04-23T07:25:50.644Z,81.60
2018-04-23T07:28:18.123Z,81.80
2018-04-23T07:30:45.619Z,81.20
2018-04-23T07:33:13.863Z,80.00
2018-04-23T07:35:41.319Z,79.80
2018-04-23T07:38:08.906Z,78.20
2018-04-23T07:40:37.151Z,79.30
2018-04-23T07:43:04.675Z,79.20
2018-04-23T07:45:32.163Z,78.60
2018-04-23T07:47:59.711Z,78.80
2018-04-23T07:50:27.188Z,78.30
2018-04-23T07:52:54.655Z,78.30
2018-04-23T07:55:22.204Z,77.60
2018-04-23T07:57:49.767Z,76.50
2018-04-23T08:00:17.328Z,76.30
2018-04-23T08:02:44.836Z,77.00
2018-04-23T08:05:12.361Z,77.30
2018-04-23T08:07:40.672Z,76.40
2018-04-23T08:10:08.173Z,76.30
2018-04-23T08:12:35.660Z,76.10
2018-04-23T08:15:03.907Z,75.90
2018-04-23T08:17:31.363Z,75.90
2018-04-23T08:19:58.920Z,72.80
2018-04-23T08:22:26.480Z,72.20
2018-04-23T08:24:53.936Z,72.20
2018-04-23T08:27:21.398Z,72.30
2018-04-23T08:29:48.972Z,72.10
2018-04-23T08:32:17.208Z,71.20
2018-04-23T08:34:44.788Z,71.20
2018-04-23T08:37:12.341Z,71.70
2018-04-23T08:39:39.901Z,70.70
2018-04-23T08:42:07.362Z,69.10
2018-04-23T08:44:34.871Z,69.00
2018-04-23T08:47:02.344Z,70.00
2018-04-23T08:49:29.840Z,70.90
2018-04-23T08:51:57.311Z,70.40
2018-04-23T08:54:25.572Z,71.10
2018-04-23T08:56:53.134Z,71.10
2018-04-23T08:59:20.608Z,71.00
2018-04-23T09:01:48.835Z,70.00
2018-04-23T09:04:16.313Z,69.90
2018-04-23T09:06:43.825Z,70.00
2018-04-23T09:09:11.292Z,70.00
2018-04-23T09:11:38.777Z,70.60
2018-04-23T09:14:06.349Z,70.60
2018-04-23T09:16:33.929Z,70.30
2018-04-23T09:19:02.151Z,71.20
2018-04-23T09:21:29.616Z,71.00
2018-04-23T09:23:57.084Z,71.50
2018-04-23T09:26:24.574Z,71.70
2018-04-23T09:28:52.817Z,72.60
2018-04-23T09:31:20.275Z,72.60
2018-04-23T09:33:48.558Z,73.30
2018-04-23T09:36:16.038Z,73.20
2018-04-23T09:38:44.286Z,73.90
2018-04-23T09:41:11.806Z,73.90
2018-04-23T09:43:39.279Z,74.90
2018-04-23T09:46:06.759Z,76.30
2018-04-23T09:48:34.281Z,78.30
2018-04-23T09:51:01.760Z,79.90
2018-04-23T09:53:29.239Z,80.80
2018-04-23T09:55:57.547Z,81.80
2018-04-23T09:58:25.017Z,81.70
2018-04-23T10:00:52.507Z,83.00
2018-04-23T10:03:19.968Z,83.80
2018-04-23T10:05:47.540Z,85.00
2018-04-23T10:08:15.100Z,86.10
2018-04-23T10:10:42.655Z,85.60
2018-04-23T10:13:10.216Z,86.00
2018-04-23T10:15:37.880Z,87.80
2018-04-23T10:18:06.866Z,87.60
2018-04-23T10:20:34.436Z,87.50
2018-04-23T10:23:01.985Z,87.80
2018-04-23T10:25:29.545Z,87.40
2018-04-23T10:27:57.015Z,87.30
2018-04-23T10:30:25.378Z,89.50
2018-04-23T10:32:52.841Z,88.60
2018-04-23T10:35:20.355Z,88.40
2018-04-23T10:37:47.840Z,90.00
2018-04-23T10:40:15.308Z,90.00
2018-04-23T10:42:42.873Z,89.10
2018-04-23T10:45:10.335Z,89.60
2018-04-23T10:47:37.883Z,89.60
2018-04-23T10:50:05.347Z,89.60
2018-04-23T10:52:33.624Z,88.60
2018-04-23T10:55:01.120Z,88.40
2018-04-23T10:57:28.686Z,88.40
2018-04-23T10:59:56.160Z,88.50
2018-04-23T11:02:23.640Z,87.70
2018-04-23T11:04:51.309Z,85.50
2018-04-23T11:07:18.775Z,85.30
2018-04-23T11:09:46.253Z,82.90
2018-04-23T11:12:14.497Z,79.30
2018-04-23T11:14:42.058Z,79.10
2018-04-23T11:17:10.294Z,75.80
2018-04-23T11:19:37.789Z,75.80
2018-04-23T11:22:05.451Z,73.00
2018-04-23T11:24:33.004Z,73.20
2018-04-23T11:27:00.571Z,72.30
2018-04-23T11:29:28.830Z,73.40
2018-04-23T11:31:56.308Z,73.30
2018-04-23T11:34:23.866Z,71.90
2018-04-23T11:36:51.408Z,72.20
2018-04-23T11:39:19.647Z,72.10
2018-04-23T11:41:47.116Z,72.10
2018-04-23T11:44:14.589Z,72.00
2018-04-23T11:46:42.169Z,71.70
2018-04-23T11:49:09.728Z,72.20
2018-04-23T11:51:37.194Z,69.80
2018-04-23T11:54:05.426Z,69.90
2018-04-23T11:56:32.901Z,69.70
2018-04-23T11:59:00.383Z,68.60
2018-04-23T12:01:28.657Z,69.00
2018-04-23T12:03:56.900Z,67.90
2018-04-23T12:06:24.384Z,67.90
2018-04-23T12:08:51.844Z,69.60
2018-04-23T12:11:20.167Z,69.10
2018-04-23T12:13:47.680Z,68.40
2018-04-23T12:16:15.139Z,68.90
2018-04-23T12:18:43.388Z,67.80
2018-04-23T12:21:10.848Z,67.70
2018-04-23T12:23:38.422Z,68.20
2018-04-23T12:26:05.968Z,66.80
2018-04-23T12:28:33.445Z,67.40
2018-04-23T12:31:01.700Z,65.70
2018-04-23T12:33:29.232Z,65.50
2018-04-23T12:35:56.687Z,66.50
2018-04-23T12:38:24.169Z,66.90
2018-04-23T12:40:51.632Z,67.50
2018-04-23T12:43:19.122Z,68.50
2018-04-23T12:45:47.403Z,68.00
2018-04-23T12:48:14.972Z,67.90
2018-04-23T12:50:42.428Z,68.20
2018-04-23T12:53:09.931Z,67.60
2018-04-23T12:55:37.499Z,67.60
2018-04-23T12:58:06.492Z,66.50
2018-04-23T13:00:34.044Z,66.40
2018-04-23T13:03:01.531Z,66.40
2018-04-23T13:05:29.776Z,63.70
2018-04-23T13:07:57.355Z,63.60
2018-04-23T13:10:25.629Z,65.30
2018-04-23T13:12:53.105Z,65.20
2018-04-23T13:15:21.333Z,65.70
2018-04-23T13:17:48.805Z,65.60
2018-04-23T13:20:16.464Z,65.70
2018-04-23T13:22:43.935Z,66.20
2018-04-23T13:25:12.195Z,66.40
2018-04-23T13:27:39.671Z,66.20
2018-04-23T13:30:07.920Z,68.00
2018-04-23T13:32:35.486Z,67.90
2018-04-23T13:35:02.972Z,68.10
2018-04-23T13:37:31.225Z,68.00
2018-04-23T13:39:58.779Z,68.00
2018-04-23T13:45:00.881Z,64.80
2018-04-23T13:47:29.144Z,63.80
2018-04-23T13:49:56.612Z,63.80
2018-04-23T13:52:24.839Z,62.50
2018-04-23T13:54:52.320Z,62.50
2018-04-23T13:57:19.788Z,62.80
2018-04-23T13:59:47.347Z,60.20
2018-04-23T14:02:14.815Z,59.80
2018-04-23T14:04:43.124Z,58.90
2018-04-23T14:07:10.583Z,58.80
2018-04-23T14:09:38.063Z,57.30
2018-04-23T14:12:05.546Z,57.20
2018-04-23T14:14:33.825Z,55.80
2018-04-23T14:17:01.380Z,55.70
2018-04-23T14:19:28.895Z,54.80
2018-04-23T14:21:56.370Z,54.70
2018-04-23T14:24:23.848Z,53.80
2018-04-23T14:26:51.312Z,53.60
2018-04-23T14:29:19.584Z,54.30
2018-04-23T14:31:47.044Z,54.30
2018-04-23T14:34:14.540Z,54.30
2018-04-23T14:36:42.020Z,54.10
2018-04-23T14:39:09.487Z,54.00
2018-04-23T14:41:36.967Z,54.50
2018-04-23T14:44:04.431Z,54.40
2018-04-23T14:46:31.984Z,54.60
2018-04-23T14:48:59.651Z,55.40
2018-04-23T14:51:27.107Z,53.80
2018-04-23T14:53:54.608Z,54.40
2018-04-23T14:56:22.115Z,54.40
2018-04-23T14:58:49.583Z,54.60
2018-04-23T15:01:17.828Z,55.50
2018-04-23T15:03:45.310Z,55.40
2018-04-23T15:06:13.561Z,53.70
2018-04-23T15:08:41.040Z,53.60
2018-04-23T15:11:08.617Z,53.10
2018-04-23T15:13:36.853Z,52.60
2018-04-23T15:16:04.332Z,52.60
2018-04-23T15:18:32.607Z,52.00
2018-04-23T15:21:00.156Z,51.90
2018-04-23T15:23:27.713Z,51.00
2018-04-23T15:25:55.189Z,51.50
2018-04-23T15:28:23.429Z,50.60
2018-04-23T15:30:50.925Z,50.60
2018-04-23T15:33:19.180Z,50.40
2018-04-23T15:35:46.736Z,50.40
2018-04-23T15:38:14.296Z,51.30
2018-04-23T15:40:41.766Z,51.50
2018-04-23T15:43:10.029Z,51.20
2018-04-23T15:45:37.588Z,51.20
2018-04-23T15:48:05.051Z,51.10
2018-04-23T15:50:32.608Z,50.40
2018-04-23T15:53:01.584Z,49.20
2018-04-23T15:55:29.060Z,49.10
2018-04-23T15:57:56.516Z,48.70
2018-04-23T16:00:24.752Z,48.70
2018-04-23T16:02:52.223Z,48.20
2018-04-23T16:05:19.688Z,48.10
2018-04-23T16:07:47.152Z,48.30
2018-04-23T16:10:14.715Z,48.70
2018-04-23T16:12:42.201Z,48.50
2018-04-23T16:15:10.439Z,44.90
2018-04-23T16:17:37.913Z,44.80
2018-04-23T16:20:05.467Z,44.70
2018-04-23T16:22:33.030Z,44.40
2018-04-23T16:25:00.490Z,45.60
2018-04-23T16:27:28.788Z,46.10
2018-04-23T16:29:56.325Z,46.70
2018-04-23T16:32:23.780Z,46.30
2018-04-23T16:34:51.360Z,47.00
2018-04-23T16:37:19.595Z,47.00
2018-04-23T16:39:48.585Z,47.20
2018-04-23T16:42:16.045Z,47.10
2018-04-23T16:44:43.510Z,47.00
2018-04-23T16:47:10.971Z,46.70
2018-04-23T16:49:38.524Z,47.30
2018-04-23T16:52:06.000Z,46.40
2018-04-23T16:54:34.260Z,45.50
2018-04-23T16:57:01.724Z,45.40
2018-04-23T16:59:29.965Z,45.50
2018-04-23T17:01:57.447Z,45.50
2018-04-23T17:04:25.003Z,44.90
2018-04-23T17:06:52.483Z,45.10
2018-04-23T17:09:20.745Z,44.80
2018-04-23T17:11:49.055Z,44.60
2018-04-23T17:14:16.526Z,44.60
2018-04-23T17:16:44.482Z,44.80
2018-04-23T17:19:11.959Z,44.40
2018-04-23T17:21:39.427Z,44.60
2018-04-23T17:24:06.916Z,44.30
2018-04-23T17:26:34.459Z,44.80
2018-04-23T17:29:01.928Z,45.30
2018-04-23T17:31:29.498Z,45.70
2018-04-23T17:33:57.740Z,45.80
2018-04-23T17:36:25.234Z,45.70
2018-04-23T17:38:53.473Z,46.60
2018-04-23T17:41:20.952Z,46.60
2018-04-23T17:43:48.475Z,47.30
2018-04-23T17:46:15.967Z,47.30
2018-04-23T17:48:43.440Z,47.40
2018-04-23T17:51:11.703Z,48.10
2018-04-23T17:53:39.943Z,48.10
2018-04-23T17:56:07.543Z,48.00
2018-04-23T17:58:35.825Z,48.10
2018-04-23T18:01:04.096Z,48.30
2018-04-23T18:03:32.417Z,48.40
2018-04-23T18:05:59.923Z,48.30
2018-04-23T18:08:27.387Z,48.40
2018-04-23T18:10:55.612Z,49.00
2018-04-23T18:13:23.087Z,48.90
2018-04-23T18:15:50.576Z,48.80
2018-04-23T18:18:18.824Z,49.30
2018-04-23T18:20:46.289Z,49.30
2018-04-23T18:23:15.276Z,49.80
2018-04-23T18:25:42.745Z,50.30
2018-04-23T18:28:10.219Z,50.00
2018-04-23T18:30:38.456Z,50.70
2018-04-23T18:33:06.083Z,50.70
2018-04-23T18:35:33.559Z,51.00
2018-04-23T18:38:01.047Z,51.30
2018-04-23T18:40:28.524Z,51.40
2018-04-23T18:42:56.776Z,51.60
2018-04-23T18:45:24.288Z,51.50
2018-04-23T18:47:51.800Z,51.70
2018-04-23T18:50:19.272Z,51.90
2018-04-23T18:52:47.524Z,52.40
2018-04-23T18:55:15.010Z,52.40
2018-04-23T18:57:42.544Z,52.70
2018-04-23T19:00:10.027Z,52.90
2018-04-23T19:02:37.560Z,52.90
2018-04-23T19:05:05.035Z,53.20
2018-04-23T19:07:33.296Z,53.60
2018-04-23T19:10:00.768Z,53.60
2018-04-23T19:12:29.029Z,53.70
2018-04-23T19:14:56.503Z,53.60
2018-04-23T19:17:24.746Z,54.10
2018-04-23T19:19:52.219Z,54.10
2018-04-23T19:22:20.472Z,54.60
2018-04-23T19:24:48.052Z,54.50
2018-04-23T19:27:15.511Z,54.50
2018-04-23T19:29:43.832Z,55.50
2018-04-23T19:32:11.321Z,54.90
2018-04-23T19:34:38.815Z,55.10
2018-04-23T19:37:07.059Z,55.30
2018-04-23T19:39:34.543Z,55.30
2018-04-23T19:42:02.778Z,55.90
2018-04-23T19:44:30.248Z,55.90
2018-04-23T19:46:57.758Z,55.80
2018-04-23T19:49:25.277Z,56.20
2018-04-23T19:51:52.766Z,56.20
2018-04-23T19:54:20.222Z,56.20
2018-04-23T19:56:47.740Z,56.30
2018-04-23T19:59:15.226Z,56.30
2018-04-23T20:01:43.471Z,56.80
2018-04-23T20:04:10.960Z,56.80
2018-04-23T20:06:39.199Z,56.80
2018-04-23T20:09:06.672Z,56.80
2018-04-23T20:11:34.173Z,57.00
2018-04-23T20:14:01.666Z,57.30
2018-04-23T20:16:29.140Z,57.20
2018-04-23T20:18:56.623Z,57.20
2018-04-23T20:21:24.168Z,57.00
2018-04-23T20:23:51.612Z,57.60
2018-04-23T20:26:19.106Z,57.80
2018-04-23T20:28:46.623Z,57.80
2018-04-23T20:31:14.179Z,58.10
2018-04-23T20:33:41.741Z,58.40
2018-04-23T20:36:09.200Z,58.40
2018-04-23T20:38:36.756Z,58.50
2018-04-23T20:41:05.740Z,58.50
2018-04-23T20:43:33.312Z,58.50
2018-04-23T20:46:00.791Z,58.50
2018-04-23T20:48:29.020Z,58.70
2018-04-23T20:50:56.527Z,58.60
2018-04-23T20:53:23.996Z,58.70
2018-04-23T20:55:51.478Z,58.80
2018-04-23T20:58:18.955Z,59.40
2018-04-23T21:00:46.561Z,58.80
2018-04-23T21:03:14.134Z,59.00
2018-04-23T21:05:41.590Z,59.10
2018-04-23T21:08:09.056Z,59.20
2018-04-23T21:10:36.608Z,59.40
2018-04-23T21:13:04.074Z,59.60
2018-04-23T21:15:31.588Z,59.40
2018-04-23T21:17:59.814Z,60.00
2018-04-23T21:20:27.295Z,60.00
2018-04-23T21:22:54.872Z,60.00
2018-04-23T21:25:22.352Z,60.00
2018-04-23T21:27:49.904Z,61.10
2018-04-23T21:30:18.264Z,61.00
2018-04-23T21:32:45.739Z,60.80
2018-04-23T21:35:13.996Z,61.30
2018-04-23T21:37:41.506Z,61.30
2018-04-23T21:40:08.943Z,61.80
2018-04-23T21:42:36.404Z,62.00
2018-04-23T21:45:03.876Z,61.70
2018-04-23T21:47:31.385Z,61.90
2018-04-23T21:49:59.699Z,62.20
2018-04-23T21:52:27.169Z,62.10
2018-04-23T21:54:54.626Z,62.40
2018-04-23T21:57:22.126Z,62.60
2018-04-23T21:59:50.379Z,62.80
2018-04-23T22:02:17.890Z,62.60
2018-04-23T22:04:45.351Z,62.90
2018-04-23T22:07:12.858Z,62.90
2018-04-23T22:09:40.392Z,62.60
2018-04-23T22:12:07.868Z,63.10
2018-04-23T22:14:35.376Z,63.10
2018-04-23T22:17:02.856Z,63.30
2018-04-23T22:19:30.323Z,63.60
2018-04-23T22:21:57.832Z,63.60
2018-04-23T22:24:25.295Z,63.70
2018-04-23T22:26:52.779Z,63.80
2018-04-23T22:29:20.245Z,63.90
2018-04-23T22:31:47.733Z,63.60
2018-04-23T22:34:15.213Z,63.70
2018-04-23T22:36:43.498Z,63.80
2018-04-23T22:39:11.081Z,63.70
2018-04-23T22:41:38.600Z,63.80
2018-04-23T22:44:06.856Z,63.60
2018-04-23T22:46:34.419Z,63.60
2018-04-23T22:49:01.985Z,63.40
2018-04-23T22:51:30.244Z,63.40
2018-04-23T22:53:57.722Z,63.20
2018-04-23T22:56:25.201Z,63.60
2018-04-23T22:58:52.664Z,63.10
2018-04-23T23:01:20.140Z,63.50
2018-04-23T23:03:47.628Z,63.60
2018-04-23T23:06:15.092Z,63.40
2018-04-23T23:08:42.589Z,63.50
2018-04-23T23:11:10.188Z,63.60
2018-04-23T23:13:38.411Z,63.80
2018-04-23T23:16:06.663Z,63.90
2018-04-23T23:18:34.223Z,63.70
2018-04-23T23:21:01.983Z,63.60
2018-04-23T23:23:29.551Z,63.90
2018-04-23T23:25:57.811Z,64.60
2018-04-23T23:28:25.387Z,63.90
2018-04-23T23:30:53.607Z,64.80
2018-04-23T23:33:21.074Z,64.60
2018-04-23T23:35:48.620Z,65.10
2018-04-23T23:38:16.074Z,65.40
2018-04-23T23:40:43.571Z,65.50
2018-04-23T23:43:11.134Z,66.10
2018-04-23T23:45:38.596Z,66.10
2018-04-23T23:48:06.072Z,66.50
2018-04-23T23:50:34.310Z,67.30
2018-04-23T23:53:01.794Z,67.10
2018-04-23T23:55:30.019Z,68.20
2018-04-23T23:57:57.519Z,67.70
